Tiempo atmosférico en la estación meteorológica de Badajoz Aeropuerto, Badajoz (185 m.)



Fecha
DESCASC
Temp. máxima en grados centígrados (hora)
DESCASC
Temp. mínima en grados centígrados (hora)
DESCASC
Temp. media en grados centígrados
DESCASC
Racha de viento máxima en m/sg (hora)
DESCASC
Velocidad máxima media en intervalos de 10 minutos(hora)
DESCASC
Precipitaciones diarias en mm
DESCASC
Precipitaciones de 00:00 a 06:00 en mm
DESCASC
Precipitaciones de 06:00 a 12:00 en mm
DESCASC
Precipitaciones de 12:00 a 18:00 en mm
DESCASC
Precipitaciones de 18:00 a 24:00 en mm
DESCASC
23-05-2018 28.7 (17:30) 13.6 (07:50) 21.2 6.67 (15:20) 4.17 (17:50) 0 0 0 0 0
22-05-2018 26.7 (19:00) 11.8 (07:10) 19.3 6.39 (20:00) 3.61 (20:00) 0 0 0 0 0
21-05-2018 25.7 (19:00) 12.2 (07:20) 19 8.06 (15:20) 4.17 (15:20) 0 0 0 0 0
20-05-2018 25.4 (14:00) 14.8 (00:00) 20.1 11.39 (18:40) 7.5 (18:40) 0 0 0 0 0
19-05-2018 28.5 (17:20) 12.8 (00:00) 20.7 9.17 (20:10) 6.94 (20:10) 0 0 0 0 0
18-05-2018 27.1 (15:50) 14.6 (00:00) 20.9 13.89 (17:20) 9.17 (17:20) 0.2 0 0 0 0.2
17-05-2018 30.9 (17:50) 12.3 (00:00) 21.6 10 (23:10) 6.39 (23:00) 0 0 0 0 0
16-05-2018 30.1 (16:20) 10.5 (00:00) 20.3 8.06 (15:20) 4.72 (17:40) 0 0 0 0 0
15-05-2018 27.6 (18:00) 9.9 (00:00) 18.8 7.78 (11:50) 4.72 (12:30) 0 0 0 0 0
14-05-2018 25.2 (16:10) 9.7 (00:00) 17.5 10.83 (17:50) 6.94 (15:40) 0 0 0 0 0
13-05-2018 21.8 (18:30) 7.2 (00:00) 14.5 9.44 (11:30) 5.83 (14:20) 0 0 0 0 0
12-05-2018 21.3 (15:40) 11.4 (00:00) 16.3 16.11 (14:30) 8.06 (17:00) 0 0 0 0 0
11-05-2018 26.4 (18:10) 12 (06:50) 19.2 8.33 (21:10) 5.56 (21:10) 0 0 0 0 0
10-05-2018 26 (18:20) 9.8 (00:00) 17.9 5.83 (00:10) 3.33 (01:10) 0 0 0 0 0
09-05-2018 22.6 (18:00) 12.1 (00:00) 17.4 10 (18:10) 6.11 (18:10) 0 0 0 0 0
08-05-2018 27.8 (16:30) 15.9 (00:00) 21.8 9.44 (18:10) 6.11 (19:10) 0.8 0 0.6 0.2 0
07-05-2018 28.5 (16:40) 12.5 (00:00) 20.5 9.44 (19:50) 5 (20:30) 0 0 0 0 0
06-05-2018 28.5 (16:30) 10.4 (00:00) 19.4 8.61 (17:30) 5.83 (17:30) 0 0 0 0 0
05-05-2018 26.9 (17:50) 8.3 (00:00) 17.6 6.39 (18:20) 3.61 (17:20) 0 0 0 0 0
04-05-2018 23.4 (16:40) 7.8 (00:00) 15.6 9.17 (13:30) 5 (13:50) 0 0 0 0 0
03-05-2018 23.9 (15:40) 8.9 (00:00) 16.4 8.06 (15:40) 5.56 (16:30) 0 0 0 0 0
02-05-2018 19 (16:30) 6.4 (00:00) 12.7 8.89 (16:50) 4.72 (16:00) 0 0 0 0 0
01-05-2018 20.3 (17:40) 7.2 (07:40) 13.7 8.89 (14:30) 5.28 (14:30) 0 0 0 0 0
30-04-2018 19.1 (17:50) 7.1 (00:00) 13.1 8.33 (18:40) 6.11 (20:20) 0 0 0 0 0
29-04-2018 16.6 (17:10) 7.7 (00:00) 12.2 13.33 (14:10) 8.33 (13:10) 2 0.4 0 1.6 0
28-04-2018 18.4 (15:30) 7.7 (00:00) 13 10 (12:40) 5.83 (21:20) 1 0 0 0 1
27-04-2018 23.5 (17:00) 9.1 (00:00) 16.3 9.72 (18:10) 6.11 (18:50) 0 0 0 0 0
26-04-2018 28.5 (17:50) 13 (00:00) 20.8 8.89 (22:40) 5.28 (22:40) 0 0 0 0 0
25-04-2018 29.7 (17:30) 12.9 (00:00) 21.3 6.67 (15:30) 4.17 (15:40) 0 0 0 0 0
24-04-2018 26.9 (17:00) 16.7 (00:00) 21.8 7.22 (13:40) 5.28 (13:50) 0 0 0 0 0

Gráficas

Temp. máximas Temp. mínimas Temp. medias Precipitaciones Rachas de viento máximas Velocidades máximas media en intervalos de 10 minutos

Datos horarios

Fecha y hora oficial Temperatura (ºC) Velocidad del viento (km/h) Dirección del viento Racha (km/h) Dirección de racha Precipitación (mm) Presión (hPa) Tendencia (hPa) Humedad (%)
2018-05-23 23:00:00 20.7 3 Sudoeste 7 Oeste 0 992.6 1 62
2018-05-23 22:00:00 22.6 3 Sudoeste 10 Sudoeste 0 992.2 0.9 56
2018-05-23 21:00:00 24.3 5 Sudoeste 12 Sudoeste 0 992 0.9 48
2018-05-23 20:00:00 25.2 5 Sudoeste 17 Sur 0 991.6 0.3 45
2018-05-23 19:00:00 27.4 6 Sur 15 Sur 0 991.3 -0.7 31
2018-05-23 18:00:00 28 13 Este 22 Este 0 991.1 -1.5 30
2018-05-23 17:00:00 27.2 5 Nordeste 21 Nordeste 0 991.3 -1.8 34
2018-05-23 16:00:00 27.2 9 Nordeste 24 Este 0 992 -1.5 35
2018-05-23 15:00:00 28.3 8 Este 23 Este 0 992.6 -1.3 32
2018-05-23 14:00:00 26.3 9 Nordeste 18 Este 0 993.1 -1 37
2018-05-23 13:00:00 24.7 10 Nordeste 17 Nordeste 0 993.5 -0.5 40
2018-05-23 12:00:00 23.6 7 Este 13 Este 0 993.9 -0.1 51
2018-05-23 11:00:00 20.2 4 Sudeste 8 Nordeste 0 994.1 0.4 63
2018-05-23 10:00:00 17.6 3 Sudoeste 6 Noroeste 0 994 0.7 74
2018-05-23 09:00:00 15 4 Oeste 10 Oeste 0 994 1 86
2018-05-23 08:00:00 13.9 7 Oeste 12 Oeste 0 993.7 0.7 89
2018-05-23 07:00:00 14.1 6 Oeste 11 Oeste 0 993.3 0.2 87
2018-05-23 06:00:00 14.3 6 Oeste 10 Oeste 0 993 -0.3 85
2018-05-23 05:00:00 15 4 Sudoeste 12 Oeste 0 993 -0.2 81
2018-05-23 04:00:00 15.5 3 Sudoeste 8 Oeste 0 993.1 -0.1 78
2018-05-23 03:00:00 16.1 6 Oeste 14 Oeste 0 993.3 0.1 77
2018-05-23 02:00:00 15.8 3 Noroeste 8 Sur 0 993.2 0.5 72
2018-05-23 01:00:00 18.4 4 Sudoeste 5 Sudoeste 0 993.2 1.1 63
2018-05-23 00:00:00 19.4 4 Sudoeste 6 Sudoeste 0 993.2 1.6 59
2018-05-22 23:00:00 20.4 4 Sudoeste 9 Oeste 0 992.7 1.3 55
2018-05-22 22:00:00 22.4 6 Oeste 13 Oeste 0 992.1 0.9 48
2018-05-22 21:00:00 24.5 9 Oeste 22 Oeste 0 991.6 0.3 42
2018-05-22 20:00:00 26.1 13 Oeste 23 Oeste 0 991.4 -0.1 40
2018-05-22 19:00:00 26.1 7 Oeste 22 Oeste 0 991.2 -0.9 40
2018-05-22 18:00:00 25.4 10 Oeste 21 Oeste 0 991.3 -1.3 43
2018-05-22 17:00:00 26.1 6 Sudoeste 17 Noroeste 0 991.5 -1.5 43
2018-05-22 16:00:00 24.6 8 Oeste 21 Oeste 0 992.1 -1.2 50
2018-05-22 15:00:00 24.3 4 Sudeste 16 Norte 0 992.6 -1.1 52
2018-05-22 14:00:00 22.3 4 Nordeste 16 Norte 0 993 -0.5 58
2018-05-22 13:00:00 19.6 6 Nordeste 15 Noroeste 0 993.3 0 68
2018-05-22 12:00:00 16.3 7 Noroeste 12 Norte 0 993.7 0.7 80
2018-05-22 11:00:00 14.5 5 Oeste 10 Oeste 0 993.5 1.1 89
2018-05-22 10:00:00 13.2 4 Noroeste 12 Oeste 0 993.3 1.5 94
2018-05-22 09:00:00 12.5 5 Oeste 10 Noroeste 0 993 1.5 97
2018-05-22 08:00:00 12.5 3 Oeste 9 Sudoeste 0 992.4 0.8 95
2018-05-22 07:00:00 12.2 3 Oeste 6 Oeste 0 991.8 0.3 93
2018-05-22 06:00:00 12.6 3 Noroeste 9 Sudoeste 0 991.5 0.2 92
2018-05-22 05:00:00 13.6 3 Sudoeste 9 Oeste 0 991.6 0.2 90
2018-05-22 04:00:00 14 3 Sudoeste 12 Oeste 0 991.5 0.1 88
2018-05-22 03:00:00 14.7 6 Oeste 15 Oeste 0 991.3 0.1 85
2018-05-22 02:00:00 15.9 10 Oeste 19 Oeste 0 991.4 0.7 81
2018-05-22 01:00:00 16.8 4 Sudoeste 13 Sudoeste 0 991.4 1.2 73
2018-05-22 00:00:00 18.1 4 Sudoeste 10 Sudoeste 0 991.2 1.6 60
2018-05-21 23:00:00 18.9 4 Sur 6 Oeste 0 990.7 1.6 51
2018-05-21 22:00:00 20.5 5 Oeste 15 Oeste 0 990.2 1 43
2018-05-21 21:00:00 22.6 11 Oeste 22 Oeste 0 989.6 0.5 33
2018-05-21 20:00:00 24.8 11 Oeste 25 Oeste 0 989.1 -0.2 24
2018-05-21 19:00:00 25.6 11 Oeste 22 Oeste 0 989.2 -0.4 33
2018-05-21 18:00:00 24.8 9 Sudoeste 24 Oeste 0 989.1 -0.8 30
2018-05-21 17:00:00 24.7 9 Sudoeste 26 Oeste 0 989.3 -1.1 36
2018-05-21 16:00:00 24.8 9 Oeste 29 Oeste 0 989.6 -1.2 44
2018-05-21 15:00:00 24.8 10 Oeste 25 Oeste 0 989.9 -1 46
2018-05-21 14:00:00 23.7 9 Sudoeste 22 Oeste 0 990.4 -0.6 48
2018-05-21 13:00:00 22.6 7 Oeste 20 Oeste 0 990.8 -0.2 57
2018-05-21 12:00:00 21.3 10 Oeste 18 Oeste 0 990.9 0.4 58
2018-05-21 11:00:00 19.8 4 Oeste 10 Sudoeste 0 991 0.7 64
2018-05-21 10:00:00 17.3 5 Noroeste 10 Noroeste 0 991 0.9 76
2018-05-21 09:00:00 15.8 5 Norte 7 Sur 0 990.5 0.4 86
2018-05-21 08:00:00 13.3 4 Sur 7 Sudeste 0 990.3 0.3 92
2018-05-21 07:00:00 12.4 4 Este 8 Sudeste 0 990.1 -0.3 92
2018-05-21 06:00:00 13.4 0 Calma 6 Sudoeste 0 990.1 0.1 91
2018-05-21 05:00:00 13.9 2 Noroeste 10 Sudoeste 0 990 -0.4 90
2018-05-21 04:00:00 13.8 5 Sudoeste 10 Sudoeste 0 990.4 -0.4 91
2018-05-21 03:00:00 13.4 8 Este 11 Nordeste 0 990 -1.5 91
2018-05-21 02:00:00 14.6 4 Sur 7 Sudoeste 0 990.4 -1.2 84
2018-05-21 01:00:00 15.4 3 Sudoeste 10 Sur 0 990.8 -0.2 82
2018-05-21 00:00:00 15.9 5 Oeste 9 Oeste 0 991.5 1.4 78
2018-05-20 23:00:00 16.1 3 Oeste 10 Noroeste 0 991.6 2.3 79
2018-05-20 22:00:00 15.8 10 Nordeste 19 Noroeste 0 991 0.3 78
2018-05-20 21:00:00 17.9 14 Oeste 21 Oeste 0 990.1 -1.1 70
2018-05-20 20:00:00 19.5 3 Oeste 13 Sur 0 989.3 -2 56
2018-05-20 19:00:00 18.9 12 Norte 41 Nordeste 0 990.7 -0.4 60
2018-05-20 18:00:00 22.7 12 Este 23 Este 0 991.2 0.2 52
2018-05-20 17:00:00 20.8 18 Este 24 Este 0 991.3 -0.4 71
2018-05-20 16:00:00 21.7 15 Nordeste 24 Noroeste 0 991.1 -1.3 68
2018-05-20 15:00:00 24 17 Oeste 31 Oeste 0 991 -1.8 49
2018-05-20 14:00:00 25.4 6 Oeste 24 Este 0 991.7 -1.3 45
2018-05-20 13:00:00 23.1 8 Sur 17 Oeste 0 992.4 -0.7 53
2018-05-20 12:00:00 22 6 Sur 14 Noroeste 0 992.8 0.3 58
2018-05-20 11:00:00 20.6 9 Norte 14 Norte 0 993 0.4 64
2018-05-20 10:00:00 18.5 7 Noroeste 15 Oeste 0 993.1 0.9 72
2018-05-20 09:00:00 15.9 3 Sudeste 8 Sudeste 0 992.5 0.3 87
2018-05-20 08:00:00 15.1 4 Norte 8 Sur 0 992.6 0.2 86
2018-05-20 07:00:00 15.6 3 Sur 8 Sur 0 992.2 -0.6 85
2018-05-20 06:00:00 15 4 Sudoeste 10 Sudoeste 0 992.2 -1.2 86
2018-05-20 05:00:00 14.9 4 Sudoeste 9 Sudoeste 0 992.4 -1.8 87
2018-05-20 04:00:00 15.2 5 Sur 8 Sudoeste 0 992.8 -1.4 89
2018-05-20 03:00:00 15.3 4 Sur 8 Sudoeste 0 993.4 -0.9 87
2018-05-20 02:00:00 15.2 4 Oeste 14 Noroeste 0 994.2 0.4 83
2018-05-20 01:00:00 16.4 3 Sur 9 Oeste 0 994.2 0.5 73
2018-05-20 00:00:00 17.3 6 Noroeste 18 Sudoeste 0 994.3 0.8 68
2018-05-19 23:00:00 18.7 5 Sudoeste 16 Sur 0 993.8 1.4 64
2018-05-19 22:00:00 20.1 8 Sur 31 Sur 0 993.7 1.7 60
2018-05-19 21:00:00 22 20 Sur 33 Este 0 993.5 1.5 48
2018-05-19 20:00:00 25 21 Este 29 Este 0 992.4 -0.1 41
2018-05-19 19:00:00 26.4 12 Norte 21 Nordeste 0 992 -0.8 33
2018-05-19 18:00:00 27 12 Noroeste 23 Norte 0 992 -1.6 30
2018-05-19 17:00:00 27.8 8 Noroeste 22 Norte 0 992.5 -2 30
2018-05-19 16:00:00 26 9 Nordeste 17 Nordeste 0 992.8 -2 34
2018-05-19 15:00:00 27 8 Nordeste 19 Sudeste 0 993.6 -1.4 36
2018-05-19 14:00:00 25.5 8 Nordeste 19 Norte 0 994.5 -0.6 39
2018-05-19 13:00:00 24.8 7 Este 19 Este 0 994.8 -0.2 42
2018-05-19 12:00:00 23.2 6 Este 15 Nordeste 0 995 0.2 48
2018-05-19 11:00:00 20.2 7 Nordeste 14 Nordeste 0 995.1 0.5 64
2018-05-19 10:00:00 17.2 3 Nordeste 6 Este 0 995 1.1 82
2018-05-19 09:00:00 14.4 3 Nordeste 8 Este 0 994.8 0.9 91
2018-05-19 08:00:00 12.9 6 Norte 9 Norte 0 994.6 1 93
2018-05-19 07:00:00 13.7 3 Sudeste 9 Norte 0 993.9 0.2 92
2018-05-19 06:00:00 13.8 3 Sudoeste 9 Nordeste 0 993.9 -0.2 93
2018-05-19 05:00:00 13.1 5 Nordeste 11 Nordeste 0 993.6 -0.8 94
2018-05-19 04:00:00 13.6 8 Nordeste 15 Nordeste 0 993.7 -0.4 93
2018-05-19 03:00:00 14.7 5 Nordeste 10 Este 0 994.1 0.4 91
2018-05-19 02:00:00 15 9 Nordeste 13 Nordeste 0 994.4 0.6 90
2018-05-19 01:00:00 16 7 Este 12 Este 0 994.1 0.2 88
2018-05-19 00:00:00 16.1 4 Sudeste 9 Sur 0 993.7 -0.5 85
2018-05-18 23:00:00 16.2 4 Este 5 Este 0 993.8 0.9 84
2018-05-18 22:00:00 16.1 4 Oeste 10 Oeste 0 993.9 1.1 84
2018-05-18 21:00:00 16.3 6 Sudeste 30 Este 0.2 994.2 1.4 81
2018-05-18 20:00:00 17.7 22 Este 42 Este 0 992.9 2.1 68
2018-05-18 19:00:00 18.4 31 Este 46 Este 0 992.8 1.7 63
2018-05-18 18:00:00 19.8 29 Nordeste 50 Norte 0 992.8 1.3 54
2018-05-18 17:00:00 26.7 13 Oeste 24 Oeste 0 990.8 -1.6 38
2018-05-18 16:00:00 26.2 9 Sudoeste 25 Sudoeste 0 991.1 -1.9 40
2018-05-18 15:00:00 26.1 12 Sudoeste 27 Sudoeste 0 991.5 -1.6 40
2018-05-18 14:00:00 25.3 9 Sur 22 Sudeste 0 992.4 -0.8 42
2018-05-18 13:00:00 23.9 9 Sur 21 Sur 0 993 -0.1 46
2018-05-18 12:00:00 23.1 7 Sur 21 Sudoeste 0 993.1 0.4 51
2018-05-18 11:00:00 20.6 10 Sur 18 Sur 0 993.2 0.6 59
2018-05-18 10:00:00 18.4 5 Sudoeste 11 Sudoeste 0 993.1 1.1 71
2018-05-18 09:00:00 15.8 5 Noroeste 8 Noroeste 0 992.7 1.4 80
2018-05-18 08:00:00 14.7 3 Oeste 9 Oeste 0 992.6 1.3 82
2018-05-18 07:00:00 15.4 5 Oeste 14 Sudoeste 0 992 0.5 81
2018-05-18 06:00:00 15.9 4 Sudoeste 17 Sur 0 991.3 -0.2 80
2018-05-18 05:00:00 16.5 7 Sur 15 Sur 0 991.3 -0.1 78
2018-05-18 04:00:00 17.2 9 Oeste 16 Noroeste 0 991.5 -0.5 68
2018-05-18 03:00:00 17.7 7 Oeste 15 Sudoeste 0 991.5 0 63
2018-05-18 02:00:00 18.6 4 Sudoeste 11 Sur 0 991.4 0.9 62
2018-05-18 01:00:00 18.9 8 Norte 27 Norte 0 992 2.6 59
2018-05-18 00:00:00 22.4 15 Norte 36 Noroeste 0 991.5 2.4 42
2018-05-17 23:00:00 23.1 23 Noroeste 33 Noroeste 0 990.5 1.6 46
2018-05-17 22:00:00 24.7 6 Oeste 14 Oeste 0 989.4 0.3 37
2018-05-17 21:00:00 26.9 9 Oeste 14 Oeste 0 989.1 -0.1 32
2018-05-17 20:00:00 28.5 4 Sudeste 13 Este 0 988.9 -0.6 22
2018-05-17 19:00:00 29.7 5 Norte 21 Norte 0 989.1 -0.9 21
2018-05-17 18:00:00 30.1 11 Este 21 Sudeste 0 989.2 -1.3 21
2018-05-17 17:00:00 30.2 10 Este 24 Nordeste 0 989.5 -1.5 20
2018-05-17 16:00:00 29.3 6 Nordeste 24 Este 0 990 -1.5 22
2018-05-17 15:00:00 28.5 10 Nordeste 19 Nordeste 0 990.5 -1.2 26
2018-05-17 14:00:00 27.5 8 Este 27 Nordeste 0 991 -0.8 30
2018-05-17 13:00:00 25.4 10 Nordeste 17 Nordeste 0 991.5 -0.3 35
2018-05-17 12:00:00 23.2 4 Nordeste 16 Norte 0 991.7 0.1 40
2018-05-17 11:00:00 21 7 Oeste 13 Noroeste 0 991.8 0.7 47
2018-05-17 10:00:00 19.2 6 Noroeste 12 Oeste 0 991.8 1.4 54
2018-05-17 09:00:00 16.6 4 Nordeste 7 Nordeste 0 991.6 1.9 65
2018-05-17 08:00:00 12.8 0 Calma 6 Noroeste 0 991.1 1.4 75
2018-05-17 07:00:00 13.5 3 Este 9 Sur 0 990.4 0.9 73
2018-05-17 06:00:00 13.6 3 Sur 3 Sur 0 989.7 0.1 76
2018-05-17 05:00:00 14.2 2 Sudeste 9 Oeste 0 989.7 0.2 71
2018-05-17 04:00:00 15 4 Oeste 6 Oeste 0 989.5 -0.2 65
2018-05-17 03:00:00 17.1 3 Sur 6 Oeste 0 989.6 -0.1 56
2018-05-17 02:00:00 18.7 4 Oeste 7 Noroeste 0 989.5 0.1 51
2018-05-17 01:00:00 19.4 4 Noroeste 9 Noroeste 0 989.7 0.8 47
2018-05-17 00:00:00 20.4 4 Noroeste 11 Norte 0 989.7 1 44
2018-05-16 23:00:00 21.3 8 Norte 12 Norte 0 989.4 0.9 43
2018-05-16 22:00:00 22.9 10 Norte 15 Norte 0 988.9 0.1 38
2018-05-16 21:00:00 26.4 13 Norte 21 Norte 0 988.7 -0.2 31
2018-05-16 20:00:00 28.8 12 Nordeste 21 Nordeste 0 988.5 -0.8 25
2018-05-16 19:00:00 29.1 9 Norte 25 Nordeste 0 988.8 -1.1 25
2018-05-16 18:00:00 29.5 8 Nordeste 25 Nordeste 0 988.9 -1.7 25
2018-05-16 17:00:00 29.3 10 Nordeste 28 Norte 0 989.3 -1.7 24
2018-05-16 16:00:00 29.5 11 Nordeste 29 Nordeste 0 989.9 -1.6 23
2018-05-16 15:00:00 27.5 11 Nordeste 27 Nordeste 0 990.6 -1.4 28
2018-05-16 14:00:00 28.9 15 Nordeste 25 Nordeste 0 991 -1.1 25
2018-05-16 13:00:00 27.6 13 Este 26 Nordeste 0 991.5 -0.8 29
2018-05-16 12:00:00 25.1 9 Este 15 Este 0 992 -0.3 36
2018-05-16 11:00:00 21.5 9 Nordeste 19 Nordeste 0 992.1 0 44
2018-05-16 10:00:00 17.9 7 Norte 12 Nordeste 0 992.3 0.5 54
2018-05-16 09:00:00 14.1 3 Noroeste 5 Noroeste 0 992.3 0.5 67
2018-05-16 08:00:00 11.2 3 Norte 4 Norte 0 992.1 0.3 77
2018-05-16 07:00:00 10.8 4 Este 6 Este 0 991.8 -0.4 78
2018-05-16 06:00:00 11.4 4 Nordeste 4 Norte 0 991.8 -0.7 73
2018-05-16 05:00:00 13.1 3 Sudoeste 6 Oeste 0 991.8 -1.1 67
2018-05-16 04:00:00 14.1 5 Oeste 8 Noroeste 0 992.2 -0.9 61
2018-05-16 03:00:00 15.2 5 Oeste 9 Oeste 0 992.5 -0.5 58
2018-05-16 02:00:00 16.3 4 Oeste 10 Oeste 0 992.9 0 54
2018-05-16 01:00:00 17.1 5 Oeste 8 Oeste 0 993.1 0.6 52
2018-05-16 00:00:00 18 0 Calma 3 Sur 0 993 0.7 48
2018-05-15 23:00:00 19.7 0 Calma 4 Norte 0 992.9 0.7 44
2018-05-15 22:00:00 21.6 3 Nordeste 14 Noroeste 0 992.5 0.1 31
2018-05-15 21:00:00 24.4 10 Norte 23 Norte 0 992.3 -0.4 26
2018-05-15 20:00:00 26.2 13 Norte 23 Noroeste 0 992.2 -1.1 25
2018-05-15 19:00:00 27 9 Norte 23 Noroeste 0 992.4 -1.7 23
2018-05-15 18:00:00 27.5 7 Noroeste 26 Noroeste 0 992.7 -2.1 22
2018-05-15 17:00:00 27 8 Noroeste 25 Norte 0 993.3 -2.2 24
2018-05-15 16:00:00 26.5 9 Nordeste 21 Nordeste 0 994.1 -2 24
2018-05-15 15:00:00 25.7 9 Norte 26 Este 0 994.8 -1.7 24
2018-05-15 14:00:00 25 9 Nordeste 26 Nordeste 0 995.5 -1.3 23
2018-05-15 13:00:00 24.6 11 Este 27 Este 0 996.1 -0.7 25
2018-05-15 12:00:00 22.6 14 Este 28 Este 0 996.5 -0.4 31
2018-05-15 11:00:00 19.6 8 Nordeste 16 Este 0 996.8 0.2 43
2018-05-15 10:00:00 16.8 7 Nordeste 12 Nordeste 0 996.8 0.6 52
2018-05-15 09:00:00 13.8 3 Norte 5 Noroeste 0 996.9 0.9 65
2018-05-15 08:00:00 11.3 3 Noroeste 5 Noroeste 0 996.6 0.8 75
2018-05-15 07:00:00 10.3 2 Oeste 4 Noroeste 0 996.2 0.6 82
2018-05-15 06:00:00 10.9 2 Oeste 7 Oeste 0 996 0.2 83
2018-05-15 05:00:00 12 5 Oeste 10 Oeste 0 995.8 -0.2 79
2018-05-15 04:00:00 11.8 6 Oeste 9 Este 0 995.6 -0.6 77
2018-05-15 03:00:00 13.8 5 Sudeste 12 Sudeste 0 995.8 -0.4 68
2018-05-15 02:00:00 14.9 3 Oeste 8 Noroeste 0 996 0 65
2018-05-15 01:00:00 16.1 6 Oeste 12 Norte 0 996.2 0.7 60
2018-05-15 00:00:00 16.3 8 Norte 15 Norte 0 996.2 1 59
2018-05-14 23:00:00 17.7 8 Norte 13 Norte 0 996 0.8 54
2018-05-14 22:00:00 18.8 9 Norte 22 Nordeste 0 995.5 0.3 51
2018-05-14 21:00:00 21.8 17 Norte 33 Norte 0 995.2 -0.2 40
2018-05-14 20:00:00 23.6 21 Norte 35 Norte 0 995.2 -0.6 35
2018-05-14 19:00:00 24.6 21 Noroeste 35 Norte 0 995.2 -1.3 34
2018-05-14 18:00:00 24.9 23 Norte 39 Norte 0 995.4 -1.6 33
2018-05-14 17:00:00 24 22 Norte 39 Norte 0 995.8 -1.9 36
2018-05-14 16:00:00 25.1 23 Noroeste 39 Norte 0 996.5 -1.7 35
2018-05-14 15:00:00 23.9 22 Norte 35 Norte 0 997 -1.7 37
2018-05-14 14:00:00 22.8 21 Noroeste 35 Norte 0 997.7 -1.4 39
2018-05-14 13:00:00 21.4 19 Noroeste 33 Norte 0 998.2 -1 43
2018-05-14 12:00:00 19.4 17 Norte 32 Norte 0 998.7 -0.8 47
2018-05-14 11:00:00 18.1 18 Norte 31 Noroeste 0 999.1 -0.5 49
2018-05-14 10:00:00 15.9 17 Norte 24 Norte 0 999.2 -0.3 54
2018-05-14 09:00:00 13.3 4 Noroeste 9 Oeste 0 999.5 0.2 62
2018-05-14 08:00:00 11.3 4 Oeste 7 Sudoeste 0 999.6 0.1 69
2018-05-14 07:00:00 10.6 4 Oeste 11 Oeste 0 999.5 -0.2 71
2018-05-14 06:00:00 9.8 6 Noroeste 10 Noroeste 0 999.3 -0.8 74
2018-05-14 05:00:00 11 5 Oeste 13 Oeste 0 999.5 -0.6 70
2018-05-14 04:00:00 11.3 4 Sudoeste 16 Noroeste 0 999.7 -0.8 69
2018-05-14 03:00:00 11.8 4 Oeste 13 Norte 0 1000.1 -0.4 66
2018-05-14 02:00:00 12.6 13 Noroeste 25 Noroeste 0 1000.1 0.2 63
2018-05-14 01:00:00 13.7 15 Noroeste 24 Noroeste 0 1000.5 1.1 58
2018-05-11 20:00:00 24.8 13 Oeste 27 Oeste 0 994.6 -0.5 42
2018-05-11 19:00:00 25.7 11 Oeste 24 Oeste 0 994.5 -1.3 41
2018-05-11 18:00:00 26.1 13 Oeste 28 Noroeste 0 994.7 -1.7 40
2018-05-11 17:00:00 25.6 8 Oeste 23 Oeste 0 995.1 -1.4 40
2018-05-11 16:00:00 25.5 10 Oeste 23 Oeste 0 995.8 -0.9 43
2018-05-11 15:00:00 24.7 12 Oeste 22 Oeste 0 996.4 -0.5 45
2018-05-11 14:00:00 23.4 7 Sudoeste 18 Noroeste 0 996.5 -0.5 48
2018-05-11 13:00:00 22 6 Sudoeste 17 Noroeste 0 996.7 0 50
2018-05-11 12:00:00 20.3 6 Oeste 14 Noroeste 0 996.9 0.8 59
2018-05-11 11:00:00 18.1 10 Oeste 19 Oeste 0 997 1.2 65
2018-05-11 10:00:00 16.7 8 Oeste 17 Oeste 0 996.7 1.4 70
2018-05-11 09:00:00 15 9 Oeste 15 Oeste 0 996.1 1.5 80
2018-05-11 08:00:00 12.7 6 Oeste 13 Oeste 0 995.8 1.3 91
2018-05-11 07:00:00 12.1 2 Oeste 10 Noroeste 0 995.3 0.9 90
2018-05-11 06:00:00 13.1 2 Oeste 13 Sudoeste 0 994.6 0 85
2018-05-11 05:00:00 13.8 4 Oeste 12 Oeste 0 994.5 -0.1 84
2018-05-11 04:00:00 14.5 4 Sudoeste 15 Sudoeste 0 994.4 0 82
2018-05-11 03:00:00 15.3 5 Sudoeste 18 Sur 0 994.6 0.4 80
2018-05-11 02:00:00 16.1 5 Sudoeste 14 Sur 0 994.6 0.8 77
2018-05-11 01:00:00 17.3 5 Sudoeste 13 Sudoeste 0 994.4 1.3 72
2018-05-11 00:00:00 18.6 4 Sudoeste 9 Sudoeste 0 994.2 1.8 67
2018-05-10 23:00:00 19.9 3 Sudoeste 8 Sur 0 993.8 1.8 60
2018-05-10 22:00:00 21.9 4 Sudoeste 10 Oeste 0 993.1 0.8 54
2018-05-10 21:00:00 23.4 7 Oeste 12 Oeste 0 992.4 0 47
2018-05-10 20:00:00 25.5 6 Oeste 15 Oeste 0 992 -0.7 41
2018-05-10 19:00:00 25.5 7 Norte 14 Oeste 0 992.3 -0.7 41
2018-05-10 18:00:00 25.6 8 Noroeste 17 Este 0 992.4 -1.1 40
2018-05-10 17:00:00 25.2 5 Nordeste 16 Norte 0 992.7 -1.3 40
2018-05-10 16:00:00 24.2 8 Nordeste 17 Noroeste 0 993 -1.1 43
2018-05-10 15:00:00 23.1 8 Nordeste 16 Este 0 993.5 -0.5 46
2018-05-10 14:00:00 21.8 6 Nordeste 14 Este 0 994 0.2 48
2018-05-10 13:00:00 20 6 Nordeste 15 Nordeste 0 994.1 0.5 52
2018-05-10 12:00:00 18.4 6 Nordeste 14 Nordeste 0 994 0.6 57
2018-05-10 11:00:00 16.3 3 Oeste 9 Nordeste 0 993.8 0.8 64
2018-05-10 10:00:00 14.4 3 Oeste 11 Sur 0 993.6 1.1 72
2018-05-10 09:00:00 12.1 4 Sudoeste 13 Sudoeste 0 993.4 1 83
2018-05-10 08:00:00 10.2 6 Sur 10 Sur 0 993 0.8 90
2018-05-10 07:00:00 10.2 5 Sudoeste 10 Sudoeste 0 992.5 0.2 90
2018-05-10 06:00:00 11 4 Sudoeste 9 Sudoeste 0 992.4 -0.1 87
2018-05-10 05:00:00 11.6 4 Sudoeste 14 Oeste 0 992.2 -0.5 85
2018-05-10 04:00:00 12.1 4 Sudoeste 15 Oeste 0 992.3 -0.6 82
2018-05-10 03:00:00 12.4 10 Oeste 18 Oeste 0 992.5 -0.2 80
2018-05-10 02:00:00 13 5 Sudoeste 21 Oeste 0 992.7 0 77
2018-05-10 01:00:00 13.6 12 Oeste 21 Oeste 0 992.9 0.8 73
2018-05-10 00:00:00 14.3 10 Oeste 24 Oeste 0 992.7 1.2 71
2018-05-09 23:00:00 14.7 12 Oeste 29 Noroeste 0 992.7 1.5 71
2018-05-09 22:00:00 16.2 14 Oeste 28 Oeste 0 992.1 1.1 67
2018-05-09 21:00:00 17.7 17 Oeste 35 Noroeste 0 991.5 0.5 64
2018-05-09 20:00:00 19.3 17 Oeste 32 Oeste 0 991.2 -0.1 64
2018-05-09 19:00:00 19.6 17 Oeste 36 Oeste 0 991 -0.5 64
2018-05-09 18:00:00 21.9 18 Oeste 35 Noroeste 0 991 -0.9 58
2018-05-09 17:00:00 22.2 17 Oeste 32 Oeste 0 991.3 -0.8 56
2018-05-09 16:00:00 21.8 15 Oeste 30 Oeste 0 991.5 -0.9 60
2018-05-09 15:00:00 19.5 10 Sudoeste 25 Sudoeste 0 991.9 -0.5 68
2018-05-09 14:00:00 18.9 10 Sudoeste 22 Sudoeste 0 992.1 -0.1 70
2018-05-09 13:00:00 17.2 7 Sudoeste 18 Sudoeste 0 992.4 0.4 77
2018-05-09 12:00:00 16.1 10 Oeste 19 Oeste 0 992.4 0.8 81
2018-05-09 11:00:00 15.2 6 Sudoeste 17 Oeste 0 992.2 1.1 84
2018-05-09 10:00:00 14.5 7 Oeste 19 Oeste 0 992 1.5 87
2018-05-09 09:00:00 13.6 12 Oeste 26 Oeste 0 991.6 1.3 89
2018-05-09 08:00:00 13 9 Oeste 18 Oeste 0 991.1 0.1 94
2018-05-09 07:00:00 12.2 3 Sudoeste 10 Sudoeste 0 990.5 -0.7 93
2018-05-09 06:00:00 12.6 4 Sudoeste 22 Oeste 0 990.3 -0.6 91
2018-05-09 05:00:00 12.7 15 Oeste 24 Oeste 0 991 0 90
2018-05-09 04:00:00 13 10 Oeste 18 Oeste 0 991.2 -0.3 89
2018-05-09 03:00:00 14.3 13 Oeste 19 Oeste 0 990.9 -0.5 85
2018-05-09 02:00:00 15.7 8 Oeste 16 Oeste 0 991 -0.2 82
2018-05-09 01:00:00 16.4 6 Sudoeste 14 Sudoeste 0 991.5 1.2 80
2018-05-09 00:00:00 17.3 8 Sur 24 Sudeste 0 991.4 1.6 79
2018-05-08 23:00:00 18.5 11 Oeste 20 Oeste 0 991.2 1.7 74
2018-05-08 22:00:00 19.4 11 Oeste 27 Oeste 0 990.3 1.2 70
2018-05-08 21:00:00 20.8 19 Oeste 30 Oeste 0 989.8 0.4 66
2018-05-08 20:00:00 24 18 Oeste 34 Noroeste 0 989.5 -0.3 56
2018-05-08 19:00:00 26.1 19 Oeste 34 Noroeste 0 989.1 -1.3 46
2018-05-08 18:00:00 27.6 15 Oeste 32 Oeste 0 989.4 -1.7 42
2018-05-08 17:00:00 27.4 18 Oeste 30 Noroeste 0 989.8 -1.9 43
2018-05-08 16:00:00 27.1 13 Oeste 26 Noroeste 0 990.4 -2 46
2018-05-08 15:00:00 25.3 10 Oeste 20 Oeste 0 991.1 -1.4 57
2018-05-08 14:00:00 22.9 6 Sudoeste 17 Oeste 0 991.7 -0.6 67
2018-05-08 13:00:00 19.4 9 Oeste 23 Oeste 0.2 992.4 0.2 83
2018-05-08 12:00:00 18.1 9 Oeste 18 Oeste 0 992.5 0.4 80
2018-05-08 11:00:00 17.2 9 Oeste 19 Oeste 0 992.3 0.5 90
2018-05-08 10:00:00 17 6 Oeste 14 Oeste 0 992.2 0.7 88
2018-05-08 09:00:00 16.9 10 Oeste 18 Oeste 0 992.1 0.5 88
2018-05-08 08:00:00 16.2 5 Oeste 15 Sudoeste 0.2 991.8 0.3 92
2018-05-08 07:00:00 16.4 6 Oeste 12 Oeste 0.4 991.5 -0.2 91
2018-05-08 06:00:00 16.4 6 Oeste 15 Oeste 0 991.6 -0.4 87
2018-05-08 05:00:00 16.9 5 Sudoeste 12 Oeste 0 991.5 -1 84
2018-05-08 04:00:00 17 4 Sudoeste 11 Sudoeste 0 991.7 -1.1 85
2018-05-08 03:00:00 17.5 5 Sur 7 Sur 0 992 -1.1 83
2018-05-08 02:00:00 17.5 4 Oeste 13 Oeste 0 992.5 -0.4 80
2018-05-08 01:00:00 17.1 7 Oeste 14 Oeste 0 992.8 0.3 82
2018-05-08 00:00:00 17.1 7 Oeste 20 Noroeste 0 993.1 1.1 83
2018-05-07 23:00:00 17.2 11 Oeste 20 Oeste 0 992.9 1 82
2018-05-07 22:00:00 17.7 12 Noroeste 18 Oeste 0 992.5 1.4 74
2018-05-07 21:00:00 19.2 10 Oeste 33 Noroeste 0 992 1.3 68
2018-05-07 20:00:00 21.8 15 Oeste 34 Oeste 0 991.9 0.8 57
2018-05-07 19:00:00 25.2 13 Sudoeste 28 Oeste 0 991.1 -0.3 44
2018-05-07 18:00:00 27.4 10 Noroeste 23 Norte 0 990.7 -1.3 36
2018-05-07 17:00:00 27.6 7 Norte 18 Norte 0 991.1 -1.7 34
2018-05-07 16:00:00 27.6 8 Noroeste 22 Noroeste 0 991.4 -2 35
2018-05-07 15:00:00 27.9 9 Norte 21 Sur 0 992 -1.7 34
2018-05-07 14:00:00 27.1 8 Nordeste 18 Sudeste 0 992.8 -0.9 38
2018-05-07 13:00:00 25.8 5 Sudeste 16 Este 0 993.4 -0.1 42
2018-05-07 12:00:00 23.6 6 Nordeste 13 Este 0 993.7 0.1 50
2018-05-07 11:00:00 20.7 5 Nordeste 14 Nordeste 0 993.7 0.4 63
2018-05-07 10:00:00 18.3 4 Sudeste 11 Este 0 993.5 0.9 74
2018-05-07 09:00:00 15.4 4 Este 8 Este 0 993.6 1.2 85
2018-05-07 08:00:00 13 2 Oeste 6 Nordeste 0 993.3 1.1 93
2018-05-07 07:00:00 12.6 2 Nordeste 7 Sudeste 0 992.6 0.4 88
2018-05-07 06:00:00 13 5 Este 7 Este 0 992.4 0 90
2018-05-07 05:00:00 14 3 Sur 6 Sur 0 992.2 -0.6 87
2018-05-07 04:00:00 14.9 3 Este 7 Sudeste 0 992.2 -0.3 83
2018-05-07 03:00:00 15.5 4 Oeste 8 Oeste 0 992.4 -0.4 80
2018-05-07 02:00:00 16.8 3 Sur 11 Sur 0 992.8 0.3 74
2018-05-07 01:00:00 17.1 4 Sur 12 Sudeste 0 992.5 0.5 79
2018-05-07 00:00:00 17.9 3 Sur 9 Oeste 0 992.8 1.1 74
2018-05-06 23:00:00 19.2 5 Oeste 13 Oeste 0 992.5 1.2 68
2018-05-06 22:00:00 21.5 4 Sur 10 Sudoeste 0 992 1.2 58
2018-05-06 21:00:00 23.8 8 Este 23 Este 0 991.7 0.4 42
2018-05-06 20:00:00 25.1 16 Nordeste 24 Este 0 991.3 0.2 34
2018-05-06 19:00:00 26.4 14 Nordeste 26 Nordeste 0 990.8 -0.9 38
2018-05-06 18:00:00 25.8 19 Nordeste 31 Norte 0 991.3 -1 40
2018-05-06 17:00:00 26.7 17 Nordeste 28 Nordeste 0 991.1 -1.8 37
2018-05-06 16:00:00 28 12 Este 29 Este 0 991.7 -1.5 33
2018-05-06 15:00:00 27.1 16 Nordeste 28 Este 0 992.3 -1.3 37
2018-05-06 14:00:00 27.3 12 Este 25 Nordeste 0 992.9 -0.8 40
2018-05-06 13:00:00 25.4 15 Este 29 Este 0 993.2 -0.6 44
2018-05-06 12:00:00 23.7 15 Este 24 Este 0 993.6 0.1 47
2018-05-06 11:00:00 21.7 13 Este 19 Este 0 993.7 0.5 54
2018-05-06 10:00:00 18.6 15 Este 24 Este 0 993.8 1.2 63
2018-05-06 09:00:00 14.7 6 Este 12 Este 0 993.5 1.1 78
2018-05-06 08:00:00 11.1 5 Sur 17 Este 0 993.2 0.7 88
2018-05-06 07:00:00 11.4 3 Sur 6 Sur 0 992.6 -0.2 88
2018-05-06 06:00:00 11.8 4 Este 5 Este 0 992.4 -0.4 87
2018-05-06 05:00:00 12.7 3 Sudoeste 5 Sudoeste 0 992.5 -0.5 84
2018-05-06 04:00:00 13.5 2 Oeste 6 Sudeste 0 992.8 -0.1 78
2018-05-06 03:00:00 14.4 5 Sudeste 10 Noroeste 0 992.8 0 75
2018-05-06 02:00:00 16.3 4 Oeste 6 Sudoeste 0 993 0.4 64
2018-05-06 01:00:00 16.7 4 Este 6 Sudoeste 0 992.9 0.7 65
2018-05-06 00:00:00 19 4 Sudoeste 6 Sudoeste 0 992.8 0.8 55
2018-05-05 23:00:00 19.5 3 Sudoeste 4 Sudoeste 0 992.6 0.7 58
2018-05-05 22:00:00 21.1 3 Noroeste 9 Noroeste 0 992.2 0.2 51
2018-05-05 21:00:00 22.7 9 Noroeste 17 Noroeste 0 992 0 45
2018-05-05 20:00:00 25.3 10 Noroeste 19 Noroeste 0 991.9 -0.4 34
2018-05-05 19:00:00 26.4 6 Sudoeste 23 Noroeste 0 992 -0.7 28
2018-05-05 18:00:00 26.5 8 Oeste 19 Noroeste 0 992 -1.1 29
2018-05-05 17:00:00 26.5 7 Noroeste 16 Oeste 0 992.3 -1.3 29
2018-05-05 16:00:00 25.9 9 Oeste 17 Oeste 0 992.7 -1.3 30
2018-05-05 15:00:00 25 6 Norte 18 Noroeste 0 993.1 -1 29
2018-05-05 14:00:00 24.6 7 Noroeste 14 Noroeste 0 993.6 -0.6 32
2018-05-05 13:00:00 23 5 Sur 11 Este 0 994 -0.1 38
2018-05-05 12:00:00 21 5 Este 12 Nordeste 0 994.1 0.3 42
2018-05-05 11:00:00 18.1 5 Nordeste 11 Este 0 994.2 0.6 55
2018-05-05 10:00:00 14.8 5 Este 8 Nordeste 0 994.1 1.2 67
2018-05-05 09:00:00 11.6 3 Este 6 Nordeste 0 993.8 0.8 81
2018-05-05 08:00:00 8.7 0 Calma 4 Oeste 0 993.6 0.8 89
2018-05-05 07:00:00 8.7 3 Oeste 10 Noroeste 0 992.9 0.2 87
2018-05-05 06:00:00 9.6 5 Oeste 12 Oeste 0 993 0 83
2018-05-05 05:00:00 10.3 2 Sudoeste 8 Noroeste 0 992.8 0 82
2018-05-05 04:00:00 11.2 3 Sudoeste 11 Noroeste 0 992.7 0 78
2018-05-05 03:00:00 12.6 4 Sudoeste 7 Oeste 0 993 0.3 72
2018-05-05 02:00:00 13.3 5 Oeste 10 Oeste 0 992.8 0.4 70
2018-05-05 01:00:00 14.2 4 Oeste 9 Oeste 0 992.7 1 65
2018-05-05 00:00:00 15.2 4 Este 8 Norte 0 992.7 1.2 60
2018-05-04 23:00:00 15.6 7 Norte 12 Norte 0 992.4 1.3 58
2018-05-04 22:00:00 16.9 10 Norte 12 Norte 0 991.7 0.7 52
2018-05-04 21:00:00 19.7 10 Norte 17 Nordeste 0 991.5 0.5 41
2018-05-04 20:00:00 21.4 10 Norte 22 Norte 0 991.1 0.2 34
2018-05-04 19:00:00 22.3 13 Norte 29 Nordeste 0 991 -0.4 31
2018-05-04 18:00:00 22.7 14 Norte 24 Nordeste 0 991 -0.7 31
2018-05-04 17:00:00 23.3 12 Nordeste 24 Nordeste 0 990.9 -1 31
2018-05-04 16:00:00 22.2 6 Nordeste 27 Nordeste 0 991.4 -0.7 31
2018-05-04 15:00:00 21.2 12 Nordeste 22 Nordeste 0 991.7 -0.7 34
2018-05-04 14:00:00 20.8 15 Nordeste 33 Nordeste 0 991.9 -0.5 39
2018-05-04 13:00:00 19.5 15 Nordeste 27 Nordeste 0 992.1 -0.4 42
2018-05-04 12:00:00 18.5 17 Nordeste 27 Nordeste 0 992.4 0.1 42
2018-05-04 11:00:00 16.6 14 Nordeste 23 Norte 0 992.4 0.6 47
2018-05-04 10:00:00 14.2 10 Norte 17 Norte 0 992.5 1.3 54
2018-05-04 09:00:00 11.2 3 Noroeste 9 Nordeste 0 992.3 1.2 67
2018-05-04 08:00:00 8.2 6 Norte 13 Norte 0 991.8 0.8 75
2018-05-04 07:00:00 8.2 9 Norte 12 Norte 0 991.2 0.1 74
2018-05-04 06:00:00 9.3 3 Este 12 Norte 0 991.1 -0.2 68
2018-05-04 05:00:00 10.2 3 Norte 13 Nordeste 0 991 -0.5 63
2018-05-04 04:00:00 10.9 8 Norte 12 Nordeste 0 991.1 -0.7 62
2018-05-04 03:00:00 11.9 7 Noroeste 13 Oeste 0 991.3 -0.7 59
2018-05-04 02:00:00 12.7 7 Oeste 16 Oeste 0 991.5 -0.6 60
2018-05-04 01:00:00 12.8 10 Oeste 17 Oeste 0 991.8 0.5 69
2018-05-04 00:00:00 14.6 6 Norte 17 Norte 0 992 1 52
2018-05-03 23:00:00 15.5 12 Norte 26 Noroeste 0 992.1 1.2 58
2018-05-03 22:00:00 17.3 9 Noroeste 15 Noroeste 0 991.3 0.3 53
2018-05-03 21:00:00 19.2 12 Norte 25 Norte 0 991 -0.3 46
2018-05-03 20:00:00 21.8 14 Norte 23 Norte 0 990.9 -0.9 39
2018-05-03 19:00:00 22.1 15 Noroeste 28 Norte 0 991 -1.3 40
2018-05-03 18:00:00 21.2 13 Noroeste 25 Noroeste 0 991.3 -1.5 45
2018-05-03 17:00:00 22.2 16 Noroeste 28 Noroeste 0 991.8 -1.8 41
2018-05-03 16:00:00 22.8 14 Norte 29 Norte 0 992.3 -1.9 42
2018-05-03 15:00:00 22.9 12 Norte 26 Norte 0 992.8 -1.8 40
2018-05-03 14:00:00 22.4 13 Norte 28 Norte 0 993.6 -1.2 43
2018-05-03 13:00:00 20.8 13 Norte 23 Norte 0 994.2 -0.8 48
2018-05-03 12:00:00 18.9 6 Noroeste 19 Norte 0 994.6 -0.6 59
2018-05-03 11:00:00 16.6 8 Noroeste 19 Noroeste 0 994.8 -0.2 65
2018-05-03 10:00:00 13.7 8 Noroeste 13 Noroeste 0 995 0.3 77
2018-05-03 09:00:00 11.6 7 Oeste 12 Oeste 0 995.2 0.4 87
2018-05-03 08:00:00 9.1 5 Sudoeste 11 Oeste 0 995 -0.1 92
2018-05-03 07:00:00 9.1 6 Sudoeste 12 Sudoeste 0 994.7 -0.8 92
2018-05-03 06:00:00 9.5 4 Sudoeste 10 Oeste 0 994.8 -1.3 91
2018-05-03 05:00:00 9.9 7 Oeste 12 Oeste 0 995.1 -1.3 91
2018-05-03 04:00:00 10.2 6 Oeste 14 Oeste 0 995.5 -1 90
2018-05-03 03:00:00 10.8 7 Oeste 13 Oeste 0 996.1 -0.4 88
2018-05-03 02:00:00 10.9 8 Oeste 14 Oeste 0 996.4 0.1 87
2018-05-03 01:00:00 11.4 10 Oeste 17 Oeste 0 996.5 0.9 84
2018-05-03 00:00:00 12.4 7 Oeste 17 Oeste 0 996.5 1.3 76
2018-05-02 23:00:00 13.2 6 Oeste 14 Sudoeste 0 996.3 1.1 72
2018-05-02 22:00:00 14 8 Oeste 15 Oeste 0 995.6 0.4 64
2018-05-02 21:00:00 15.4 9 Oeste 16 Oeste 0 995.2 -0.1 57
2018-05-02 20:00:00 16.4 10 Oeste 20 Noroeste 0 995.2 0 53
2018-05-02 19:00:00 17 13 Oeste 22 Noroeste 0 995.2 -0.3 53
2018-05-02 18:00:00 17.6 11 Oeste 23 Oeste 0 995.3 -0.2 47
2018-05-02 17:00:00 18.1 11 Oeste 32 Noroeste 0 995.2 -0.6 43
2018-05-02 16:00:00 18.8 17 Oeste 26 Noroeste 0 995.5 -0.7 36
2018-05-02 15:00:00 18.1 6 Oeste 24 Noroeste 0 995.5 -0.9 41
2018-05-02 14:00:00 17.4 9 Oeste 24 Noroeste 0 995.8 -0.6 45
2018-05-02 13:00:00 16.4 8 Oeste 20 Noroeste 0 996.2 0 49
2018-05-02 12:00:00 15.4 10 Oeste 18 Noroeste 0 996.4 0.5 54
2018-05-02 11:00:00 13.5 9 Oeste 17 Sudoeste 0 996.4 0.9 64
2018-05-02 10:00:00 10.8 6 Sudoeste 12 Oeste 0 996.2 0.9 74
2018-05-02 09:00:00 8.1 5 Oeste 13 Oeste 0 995.9 0.6 83
2018-05-02 08:00:00 6.8 6 Oeste 12 Oeste 0 995.5 0.1 86
2018-05-02 07:00:00 6.5 6 Sudoeste 14 Sudoeste 0 995.3 0 86
2018-05-02 06:00:00 6.7 6 Sudoeste 12 Sur 0 995.3 -0.3 84
2018-05-02 05:00:00 7.1 5 Sudoeste 12 Sudoeste 0 995.4 -0.2 82
2018-05-02 04:00:00 8 4 Sudoeste 9 Sur 0 995.3 -0.1 76
2018-05-02 03:00:00 8.6 3 Sudoeste 11 Oeste 0 995.6 0.5 72
2018-05-02 02:00:00 9.5 4 Sudoeste 15 Oeste 0 995.6 0.9 66
2018-05-02 01:00:00 10.2 9 Oeste 20 Oeste 0 995.4 1.6 62
2018-05-02 00:00:00 10.8 15 Oeste 27 Oeste 0 995.1 1.8 61
2018-05-01 23:00:00 12.3 17 Oeste 27 Oeste 0 994.7 1.5 58
2018-05-01 22:00:00 13.8 9 Oeste 20 Oeste 0 993.8 0.7 51
2018-05-01 21:00:00 16.1 13 Oeste 21 Oeste 0 993.3 0.2 45
2018-05-01 20:00:00 18.9 10 Oeste 22 Oeste 0 993.2 -0.1 36
2018-05-01 19:00:00 18.6 14 Oeste 26 Noroeste 0 993.1 -0.7 39
2018-05-01 18:00:00 19.9 14 Norte 25 Noroeste 0 993.1 -1 28
2018-05-01 17:00:00 19 15 Noroeste 27 Noroeste 0 993.3 -1 29
2018-05-01 16:00:00 19.7 14 Noroeste 29 Noroeste 0 993.8 -1 33
2018-05-01 15:00:00 17.4 16 Noroeste 32 Noroeste 0 994.1 -1 40
2018-05-01 14:00:00 16.6 13 Noroeste 22 Noroeste 0 994.3 -0.7 48
2018-05-01 13:00:00 16.1 11 Noroeste 21 Noroeste 0 994.8 0 52
2018-05-01 12:00:00 14.3 7 Noroeste 16 Noroeste 0 995.1 0.8 62
2018-05-01 11:00:00 11.4 5 Oeste 14 Noroeste 0 995 0.9 79
2018-05-01 10:00:00 8.7 7 Oeste 19 Oeste 0 994.8 1.2 91
2018-05-01 09:00:00 8 9 Oeste 17 Noroeste 0 994.3 0.7 94
2018-05-01 08:00:00 7.4 10 Oeste 18 Noroeste 0 994.1 0.2 96
2018-05-01 07:00:00 7.8 3 Oeste 14 Oeste 0 993.6 -0.4 89
2018-05-01 06:00:00 9.1 7 Oeste 12 Oeste 0 993.6 -0.9 88
2018-05-01 05:00:00 9.8 6 Oeste 12 Oeste 0 993.9 -1.1 88
2018-05-01 04:00:00 10.1 8 Oeste 14 Noroeste 0 994 -0.9 84
2018-05-01 03:00:00 10.2 10 Oeste 14 Oeste 0 994.5 -0.3 83
2018-05-01 02:00:00 11.1 7 Oeste 14 Oeste 0 995 0.3 78
2018-05-01 01:00:00 11.7 5 Sudoeste 14 Oeste 0 994.9 0.7 74
2018-05-01 00:00:00 11.4 6 Oeste 12 Oeste 0 994.8 1.5 75
2018-04-30 23:00:00 11.7 7 Oeste 17 Noroeste 0 994.7 1.7 73
2018-04-30 22:00:00 12.2 9 Oeste 21 Noroeste 0 994.2 1.2 66
2018-04-30 21:00:00 14.2 15 Noroeste 30 Noroeste 0 993.3 0.4 54
2018-04-30 20:00:00 16.5 14 Oeste 27 Oeste 0 993 -0.1 40
2018-04-30 19:00:00 16.3 16 Noroeste 30 Noroeste 0 993 -0.7 44
2018-04-30 18:00:00 18.1 12 Oeste 25 Oeste 0 992.9 -1.3 35
2018-04-30 17:00:00 18.5 11 Oeste 27 Oeste 0 993.1 -1.6 32
2018-04-30 16:00:00 17.4 14 Noroeste 28 Noroeste 0 993.7 -1.4 45
2018-04-30 15:00:00 15.9 8 Sudoeste 23 Noroeste 0 994.2 -0.9 50
2018-04-30 14:00:00 15.8 9 Oeste 20 Noroeste 0 994.7 -0.3 49
2018-04-30 13:00:00 14.4 8 Noroeste 17 Noroeste 0 995.1 0.2 57
2018-04-30 12:00:00 13.3 9 Oeste 19 Noroeste 0 995.1 0.6 66
2018-04-30 11:00:00 11.8 6 Sudoeste 11 Oeste 0 995 0.7 74
2018-04-30 10:00:00 9.2 5 Noroeste 9 Noroeste 0 994.9 1.1 86
2018-04-30 09:00:00 8.6 3 Sur 8 Nordeste 0 994.5 0.4 85
2018-04-30 08:00:00 7.3 2 Sudoeste 6 Noroeste 0 994.3 -0.1 90
2018-04-30 07:00:00 8.4 3 Sudoeste 9 Sudoeste 0 993.8 -0.7 84
2018-04-30 06:00:00 8.1 4 Sudoeste 11 Sur 0 994.1 -1 85
2018-04-30 05:00:00 8 5 Sudoeste 12 Sur 0 994.4 -1.1 85
2018-04-30 04:00:00 7.7 3 Sudoeste 11 Sudoeste 0 994.5 -0.9 83
2018-04-30 03:00:00 7.3 5 Sudoeste 10 Sur 0 995.1 -0.2 83
2018-04-30 02:00:00 7.8 4 Sudoeste 13 Oeste 0 995.5 0.4 79
2018-04-30 01:00:00 8.4 5 Sudoeste 12 Oeste 0 995.4 0.9 77
2018-04-30 00:00:00 9.4 4 Sudoeste 15 Oeste 0 995.3 1.5 74
2018-04-29 23:00:00 10.1 8 Oeste 14 Oeste 0 995.1 2 68
2018-04-29 22:00:00 10.5 7 Oeste 22 Oeste 0 994.5 1.7 68
2018-04-29 21:00:00 12.5 17 Oeste 33 Noroeste 0 993.8 1.1 56
2018-04-29 20:00:00 14.5 22 Oeste 39 Oeste 0 993.1 0.4 45
2018-04-29 19:00:00 15.7 22 Oeste 40 Oeste 0 992.8 -0.8 46
2018-04-29 18:00:00 15.6 23 Oeste 44 Noroeste 0 992.7 -0.7 51
2018-04-29 17:00:00 16 18 Oeste 39 Oeste 0 992.7 -0.3 56
2018-04-29 16:00:00 10.9 14 Oeste 45 Noroeste 1.2 993.6 0.1 85
2018-04-29 15:00:00 14.5 12 Sudoeste 48 Oeste 0.2 993.4 0.2 57
2018-04-29 14:00:00 15.2 18 Oeste 44 Noroeste 0 993 0.1 53
2018-04-29 13:00:00 12.1 24 Oeste 40 Oeste 0.2 993.5 1.4 72
2018-04-29 12:00:00 13.4 20 Oeste 37 Oeste 0 993.2 1.7 59
2018-04-29 11:00:00 11.7 11 Oeste 34 Oeste 0 992.9 2.4 75
2018-04-29 10:00:00 10.7 17 Oeste 33 Oeste 0 992.1 2.4 79
2018-04-29 09:00:00 9.4 10 Sudoeste 29 Sudoeste 0 991.5 2.1 84
2018-04-29 08:00:00 7.9 10 Sudoeste 24 Oeste 0 990.5 1.3 90
2018-04-29 07:00:00 7.9 9 Sudoeste 22 Sudoeste 0 989.7 0.8 91
2018-04-29 06:00:00 7.9 9 Sudoeste 21 Sudoeste 0 989.4 0.4 92
2018-04-29 05:00:00 8.3 10 Sudoeste 23 Oeste 0 989.2 0.2 90
2018-04-29 04:00:00 8.7 9 Sudoeste 23 Sudoeste 0 988.9 -0.1 90
2018-04-29 03:00:00 8.9 9 Sudoeste 22 Oeste 0 989 -0.1 91
2018-04-29 02:00:00 8.9 10 Sudoeste 22 Oeste 0.2 989 0.3 91
2018-04-29 01:00:00 9.2 7 Sudoeste 19 Oeste 0.2 989 0.5 90
2018-04-29 00:00:00 9.5 7 Oeste 19 Noroeste 0.6 989.1 0.6 90
2018-04-28 23:00:00 9.8 13 Oeste 21 Oeste 0.2 988.7 0.7 88
2018-04-28 22:00:00 9.6 14 Noroeste 36 Oeste 0 988.5 0.3 85
2018-04-28 21:00:00 12.6 9 Sudoeste 21 Sur 0.2 988.5 -0.3 75
2018-04-28 20:00:00 13.9 10 Sudoeste 29 Sudoeste 0 988 -1.3 55
2018-04-28 19:00:00 15.7 9 Sur 19 Sur 0 988.2 -1.9 46
2018-04-28 18:00:00 15.7 10 Sudoeste 27 Sudoeste 0 988.8 -1.9 47
2018-04-28 17:00:00 17.9 11 Sudoeste 29 Oeste 0 989.3 -2 39
2018-04-28 16:00:00 17.4 12 Oeste 26 Oeste 0 990.1 -1.7 37
2018-04-28 15:00:00 16.9 12 Oeste 26 Oeste 0 990.7 -1.3 38
2018-04-28 14:00:00 16 15 Oeste 32 Oeste 0 991.3 -0.5 45
2018-04-28 13:00:00 15.9 16 Oeste 36 Oeste 0 991.8 -0.2 44
2018-04-28 12:00:00 15.5 14 Oeste 30 Noroeste 0 992 0.1 49
2018-04-28 11:00:00 14 14 Oeste 31 Oeste 0 991.8 0.1 59
2018-04-28 10:00:00 12 15 Oeste 28 Sudoeste 0 992 0.5 72
2018-04-28 09:00:00 10.1 11 Oeste 20 Oeste 0 991.9 0.2 79
2018-04-28 08:00:00 7.9 5 Sudoeste 14 Sudoeste 0 991.7 -0.5 88
2018-04-28 07:00:00 7.8 6 Sudoeste 18 Oeste 0 991.5 -0.7 87
2018-04-28 06:00:00 8.2 7 Sudoeste 16 Sudoeste 0 991.7 -0.8 84
2018-04-28 05:00:00 8.7 4 Sudoeste 15 Oeste 0 992.2 -0.5 82
2018-04-28 04:00:00 10.1 9 Oeste 24 Oeste 0 992.2 -0.8 73
2018-04-28 03:00:00 11.4 10 Oeste 21 Oeste 0 992.5 -0.5 72
2018-04-28 02:00:00 11.7 9 Oeste 18 Oeste 0 992.7 -0.2 75
2018-04-28 01:00:00 12.5 11 Oeste 21 Oeste 0 993 0.5 74
2018-04-28 00:00:00 13.2 10 Oeste 20 Noroeste 0 993 1.1 78
2018-04-27 23:00:00 14.4 12 Oeste 24 Oeste 0 992.9 0.9 76
2018-04-27 22:00:00 16.1 16 Oeste 29 Oeste 0 992.5 0.2 71
2018-04-27 21:00:00 18.7 13 Oeste 28 Oeste 0 991.9 -0.5 59
2018-04-27 20:00:00 19.7 15 Oeste 31 Noroeste 0 992 -0.5 55
2018-04-27 19:00:00 20.5 20 Oeste 35 Noroeste 0 992.3 -0.9 53
2018-04-27 18:00:00 22.7 17 Oeste 33 Oeste 0 992.4 -1.2 50
2018-04-27 17:00:00 23.4 15 Oeste 31 Noroeste 0 992.5 -1.5 48
2018-04-27 16:00:00 22.7 17 Oeste 32 Oeste 0 993.2 -1.4 48
2018-04-27 15:00:00 22.4 14 Oeste 27 Noroeste 0 993.6 -1.3 42
2018-04-27 14:00:00 21.5 13 Oeste 30 Oeste 0 994 -0.9 43
2018-04-27 13:00:00 20.1 8 Oeste 19 Oeste 0 994.6 -0.3 49
2018-04-27 12:00:00 18.1 9 Oeste 17 Oeste 0 994.9 0.3 56
2018-04-27 11:00:00 15.5 9 Oeste 15 Noroeste 0 994.9 0.7 63
2018-04-27 10:00:00 13.3 5 Oeste 17 Oeste 0 994.9 0.9 73
2018-04-27 09:00:00 11.3 8 Oeste 14 Oeste 0 994.6 0.7 81
2018-04-27 08:00:00 9.3 5 Sudoeste 12 Oeste 0 994.2 0.1 90
2018-04-27 07:00:00 9.7 7 Oeste 19 Oeste 0 994 -0.2 90
2018-04-27 06:00:00 10.1 9 Oeste 19 Oeste 0 993.9 -0.6 88
2018-04-27 05:00:00 10.7 4 Sudoeste 17 Oeste 0 994.1 -0.6 86
2018-04-27 04:00:00 11.5 6 Oeste 21 Noroeste 0 994.2 -0.4 82
2018-04-27 03:00:00 12.8 11 Oeste 27 Noroeste 0 994.5 0.1 78
2018-04-27 02:00:00 15.7 13 Oeste 30 Oeste 0 994.7 0.7 68
2018-04-27 01:00:00 16.8 14 Oeste 28 Oeste 0 994.6 1.5 69
2018-04-27 00:00:00 18.6 13 Oeste 22 Oeste 0 994.4 2.1 65
2018-04-26 23:00:00 20.9 13 Oeste 32 Oeste 0 994 1.7 62
2018-04-26 22:00:00 22.9 10 Oeste 17 Oeste 0 993.1 0.4 63
2018-04-26 21:00:00 24.7 7 Sudoeste 15 Sudoeste 0 992.3 -0.5 55
2018-04-26 20:00:00 26.9 8 Sudoeste 21 Oeste 0 992.3 -0.7 47
2018-04-26 19:00:00 27.9 11 Oeste 19 Oeste 0 992.7 -0.9 39
2018-04-26 18:00:00 28.2 9 Oeste 21 Oeste 0 992.8 -1.3 41
2018-04-26 17:00:00 28 10 Noroeste 30 Oeste 0 993 -1.5 44
2018-04-26 16:00:00 27.5 5 Norte 14 Noroeste 0 993.6 -1.3 42
2018-04-26 15:00:00 26.8 5 Sur 14 Sur 0 994.1 -0.9 43
2018-04-26 14:00:00 25.2 7 Nordeste 15 Nordeste 0 994.5 -0.4 49
2018-04-26 13:00:00 23.8 7 Este 13 Sudeste 0 994.9 0 56
2018-04-26 12:00:00 21.3 5 Nordeste 10 Norte 0 995 0.2 65
2018-04-26 11:00:00 18.6 5 Noroeste 9 Oeste 0 994.9 0.7 74
2018-04-26 10:00:00 16 3 Noroeste 8 Oeste 0 994.9 1.2 82
2018-04-26 09:00:00 14.3 5 Oeste 8 Oeste 0 994.8 0.9 87
2018-04-26 08:00:00 13.2 5 Noroeste 9 Sudoeste 0 994.2 0.5 89
2018-04-26 07:00:00 14.1 3 Sur 5 Sur 0 993.7 0 89
2018-04-26 06:00:00 14.6 2 Sudoeste 9 Oeste 0 993.9 -0.1 87
2018-04-26 05:00:00 15.3 5 Sur 13 Oeste 0 993.7 -0.8 86
2018-04-26 04:00:00 15.6 7 Oeste 13 Oeste 0 993.7 0.3 83
2018-04-26 03:00:00 16.7 4 Oeste 18 Oeste 0 994 0.6 80
2018-04-26 02:00:00 17.6 5 Sur 17 Oeste 0 994.5 1.3 75
2018-04-26 01:00:00 18.1 9 Oeste 19 Noroeste 0 993.4 0.8 75
2018-04-26 00:00:00 19.2 11 Oeste 21 Oeste 0 993.4 1.6 73
2018-04-25 23:00:00 21.3 12 Oeste 20 Oeste 0 993.2 1.7 70
2018-04-25 22:00:00 23 8 Oeste 20 Oeste 0 992.6 1.1 68
2018-04-25 21:00:00 25.4 9 Oeste 21 Oeste 0 991.8 0 60
2018-04-25 20:00:00 27.4 8 Oeste 19 Noroeste 0 991.5 -0.7 45
2018-04-25 19:00:00 28.5 14 Noroeste 23 Noroeste 0 991.5 -1.3 38
2018-04-25 18:00:00 29.3 12 Noroeste 21 Noroeste 0 991.8 -1.2 33
2018-04-25 17:00:00 29.4 12 Norte 23 Norte 0 992.2 -1.3 31
2018-04-25 16:00:00 29 14 Norte 24 Norte 0 992.8 -1.5 37
2018-04-25 15:00:00 28.3 12 Norte 23 Norte 0 993 -1.8 38
2018-04-25 14:00:00 26.8 8 Norte 16 Norte 0 993.5 -1.3 46
2018-04-25 13:00:00 25.3 6 Nordeste 14 Nordeste 0 994.3 -0.3 44
2018-04-25 12:00:00 23.4 6 Este 14 Nordeste 0 994.8 0.4 51
2018-04-25 11:00:00 20.5 8 Nordeste 12 Nordeste 0 994.8 1.4 62
2018-04-25 10:00:00 17.6 5 Noroeste 9 Noroeste 0 994.6 1.2 77
2018-04-25 09:00:00 15.6 4 Este 6 Sudeste 0 994.4 1.4 84
2018-04-25 08:00:00 13.7 4 Noroeste 6 Noroeste 0 993.4 1.2 87
2018-04-25 07:00:00 13.3 4 Oeste 14 Noroeste 0 993.4 1.3 92
2018-04-25 06:00:00 13.5 5 Noroeste 10 Noroeste 0 993 0.5 88
2018-04-25 05:00:00 14.1 5 Sudeste 7 Sudeste 0 992.2 -0.5 91
2018-04-25 04:00:00 14.9 4 Oeste 5 Oeste 0 992.1 -0.5 87
2018-04-25 03:00:00 15.8 4 Sur 12 Oeste 0 992.5 -0.3 84
2018-04-25 02:00:00 16.9 4 Sudoeste 13 Noroeste 0 992.7 0.1 82
2018-04-25 01:00:00 17.5 5 Oeste 8 Sudoeste 0 992.6 0.7 77
2018-04-25 00:00:00 19 5 Sudoeste 7 Sudoeste 0 992.8 1.3 68
2018-04-24 23:00:00 19.4 0 Calma 10 Oeste 0 992.6 1.1 71
2018-04-24 22:00:00 20.8 4 Sudoeste 8 Sur 0 991.9 0.6 64
2018-04-24 21:00:00 23.7 3 Sudoeste 4 Este 0 991.5 0.1 52
2018-04-24 20:00:00 25.3 4 Este 5 Este 0 991.5 -0.2 49
2018-04-24 19:00:00 25.2 4 Sur 10 Este 0 991.3 -1 44
2018-04-24 18:00:00 26.4 6 Este 20 Nordeste 0 991.4 -1.1 36
2018-04-24 17:00:00 26.2 11 Nordeste 22 Nordeste 0 991.7 -1.2 37
2018-04-24 16:00:00 26 12 Nordeste 23 Este 0 992.3 -0.9 39
2018-04-24 15:00:00 25.5 15 Nordeste 23 Nordeste 0 992.5 -0.6 39
2018-04-24 14:00:00 24.1 18 Este 26 Este 0 992.9 0.2 40
2018-04-24 13:00:00 22 12 Nordeste 18 Este 0 993.2 0.6 51
2018-04-24 12:00:00 20.7 10 Este 16 Este 0 993.1 0.7 56
2018-04-24 11:00:00 19 6 Nordeste 14 Nordeste 0 992.7 1 67
2018-04-24 10:00:00 17.7 9 Nordeste 13 Este 0 992.6 1 69
2018-04-24 09:00:00 16.8 7 Norte 14 Este 0 992.4 0.9 80
2018-04-24 08:00:00 17 10 Este 13 Este 0 991.7 0.1 79
2018-04-24 07:00:00 17.6 6 Este 14 Nordeste 0 991.6 0.4 77
2018-04-24 06:00:00 17.9 6 Este 9 Este 0 991.5 -0.1 78
2018-04-24 05:00:00 17.9 4 Sur 9 Norte 0 991.6 -0.4 82
2018-04-24 04:00:00 17.5 9 Norte 10 Norte 0 991.2 -0.8 85
2018-04-24 03:00:00 18.4 6 Norte 9 Norte 0 991.6 -0.4 85
2018-04-24 02:00:00 19.5 3 Oeste 5 Noroeste 0 992 -0.1 82
2018-04-24 01:00:00 20 2 Noroeste 6 Norte 0 992 0.8 77
2018-04-24 00:00:00 20.6 3 Norte 8 Norte 0 992 1.3 74